sensor_id;sensor_type;location;lat;lon;timestamp;P1;durP1;ratioP1;P2;durP2;ratioP2
47749;SDS011;49810;48.160;10.812;2023-03-01T00:01:04;40.72;;;21.90;;
47749;SDS011;49810;48.160;10.812;2023-03-01T00:03:33;41.78;;;23.00;;
47749;SDS011;49810;48.160;10.812;2023-03-01T00:06:01;42.92;;;21.85;;
47749;SDS011;49810;48.160;10.812;2023-03-01T00:08:29;41.47;;;22.33;;
47749;SDS011;49810;48.160;10.812;2023-03-01T00:11:01;40.65;;;22.45;;
47749;SDS011;49810;48.160;10.812;2023-03-01T00:13:30;42.10;;;22.30;;
47749;SDS011;49810;48.160;10.812;2023-03-01T00:15:58;42.63;;;22.70;;
47749;SDS011;49810;48.160;10.812;2023-03-01T00:18:26;41.17;;;22.88;;
47749;SDS011;49810;48.160;10.812;2023-03-01T00:20:55;40.50;;;22.85;;
47749;SDS011;49810;48.160;10.812;2023-03-01T00:23:23;42.78;;;23.92;;
47749;SDS011;49810;48.160;10.812;2023-03-01T00:25:51;39.42;;;21.77;;
47749;SDS011;49810;48.160;10.812;2023-03-01T00:28:19;42.75;;;22.98;;
47749;SDS011;49810;48.160;10.812;2023-03-01T00:30:48;41.55;;;22.27;;
47749;SDS011;49810;48.160;10.812;2023-03-01T00:33:17;41.30;;;21.63;;
47749;SDS011;49810;48.160;10.812;2023-03-01T00:35:45;40.78;;;22.50;;
47749;SDS011;49810;48.160;10.812;2023-03-01T00:38:12;39.03;;;22.23;;
47749;SDS011;49810;48.160;10.812;2023-03-01T00:40:40;42.42;;;23.52;;
47749;SDS011;49810;48.160;10.812;2023-03-01T00:43:08;42.13;;;22.98;;
47749;SDS011;49810;48.160;10.812;2023-03-01T00:45:36;41.30;;;22.05;;
47749;SDS011;49810;48.160;10.812;2023-03-01T00:48:05;39.13;;;22.35;;
47749;SDS011;49810;48.160;10.812;2023-03-01T00:50:33;41.00;;;22.52;;
47749;SDS011;49810;48.160;10.812;2023-03-01T00:53:01;40.15;;;23.10;;
47749;SDS011;49810;48.160;10.812;2023-03-01T00:55:31;40.47;;;22.52;;
47749;SDS011;49810;48.160;10.812;2023-03-01T00:57:59;44.35;;;22.77;;
47749;SDS011;49810;48.160;10.812;2023-03-01T01:00:27;36.75;;;21.65;;
47749;SDS011;49810;48.160;10.812;2023-03-01T01:02:55;40.78;;;23.10;;
47749;SDS011;49810;48.160;10.812;2023-03-01T01:05:25;41.03;;;22.73;;
47749;SDS011;49810;48.160;10.812;2023-03-01T01:07:53;40.70;;;23.15;;
47749;SDS011;49810;48.160;10.812;2023-03-01T01:10:21;41.38;;;23.65;;
47749;SDS011;49810;48.160;10.812;2023-03-01T01:12:49;42.20;;;23.33;;
47749;SDS011;49810;48.160;10.812;2023-03-01T01:15:17;40.75;;;22.58;;
47749;SDS011;49810;48.160;10.812;2023-03-01T01:17:44;37.65;;;21.83;;
47749;SDS011;49810;48.160;10.812;2023-03-01T01:20:12;42.50;;;22.73;;
47749;SDS011;49810;48.160;10.812;2023-03-01T01:22:41;45.15;;;23.48;;
47749;SDS011;49810;48.160;10.812;2023-03-01T01:25:10;42.72;;;23.02;;
47749;SDS011;49810;48.160;10.812;2023-03-01T01:27:38;39.97;;;22.77;;
47749;SDS011;49810;48.160;10.812;2023-03-01T01:30:06;40.42;;;22.45;;
47749;SDS011;49810;48.160;10.812;2023-03-01T01:32:34;40.30;;;22.42;;
47749;SDS011;49810;48.160;10.812;2023-03-01T01:35:02;41.63;;;22.85;;
47749;SDS011;49810;48.160;10.812;2023-03-01T01:37:30;41.13;;;22.92;;
47749;SDS011;49810;48.160;10.812;2023-03-01T01:40:01;44.45;;;23.17;;
47749;SDS011;49810;48.160;10.812;2023-03-01T01:42:30;40.92;;;22.70;;
47749;SDS011;49810;48.160;10.812;2023-03-01T01:47:44;44.70;;;22.90;;
47749;SDS011;49810;48.160;10.812;2023-03-01T01:50:15;42.20;;;23.00;;
47749;SDS011;49810;48.160;10.812;2023-03-01T01:52:44;39.10;;;21.85;;
47749;SDS011;49810;48.160;10.812;2023-03-01T01:55:14;37.20;;;20.80;;
47749;SDS011;49810;48.160;10.812;2023-03-01T01:57:44;41.38;;;23.65;;
47749;SDS011;49810;48.160;10.812;2023-03-01T02:00:13;47.17;;;23.42;;
47749;SDS011;49810;48.160;10.812;2023-03-01T02:02:42;42.45;;;22.67;;
47749;SDS011;49810;48.160;10.812;2023-03-01T02:05:14;39.78;;;23.17;;
47749;SDS011;49810;48.160;10.812;2023-03-01T02:07:44;42.75;;;24.13;;
47749;SDS011;49810;48.160;10.812;2023-03-01T02:10:14;44.03;;;22.40;;
47749;SDS011;49810;48.160;10.812;2023-03-01T02:12:42;42.50;;;22.90;;
47749;SDS011;49810;48.160;10.812;2023-03-01T02:15:10;43.47;;;22.88;;
47749;SDS011;49810;48.160;10.812;2023-03-01T02:17:38;42.67;;;22.80;;
47749;SDS011;49810;48.160;10.812;2023-03-01T02:20:10;40.53;;;21.95;;
47749;SDS011;49810;48.160;10.812;2023-03-01T02:22:41;46.13;;;24.35;;
47749;SDS011;49810;48.160;10.812;2023-03-01T02:25:12;41.78;;;23.88;;
47749;SDS011;49810;48.160;10.812;2023-03-01T02:27:48;40.03;;;22.15;;
47749;SDS011;49810;48.160;10.812;2023-03-01T02:30:18;41.42;;;23.20;;
47749;SDS011;49810;48.160;10.812;2023-03-01T02:32:46;40.17;;;22.45;;
47749;SDS011;49810;48.160;10.812;2023-03-01T02:35:14;41.13;;;23.10;;
47749;SDS011;49810;48.160;10.812;2023-03-01T02:37:44;39.80;;;21.83;;
47749;SDS011;49810;48.160;10.812;2023-03-01T02:40:13;44.50;;;22.98;;
47749;SDS011;49810;48.160;10.812;2023-03-01T02:42:46;43.58;;;23.15;;
47749;SDS011;49810;48.160;10.812;2023-03-01T02:45:15;45.08;;;23.48;;
47749;SDS011;49810;48.160;10.812;2023-03-01T02:47:44;40.63;;;22.35;;
47749;SDS011;49810;48.160;10.812;2023-03-01T02:50:15;41.75;;;21.60;;
47749;SDS011;49810;48.160;10.812;2023-03-01T02:52:47;42.25;;;23.23;;
47749;SDS011;49810;48.160;10.812;2023-03-01T02:55:20;42.80;;;22.75;;
47749;SDS011;49810;48.160;10.812;2023-03-01T02:57:48;41.95;;;22.88;;
47749;SDS011;49810;48.160;10.812;2023-03-01T03:00:18;40.72;;;22.40;;
47749;SDS011;49810;48.160;10.812;2023-03-01T03:02:48;40.55;;;22.33;;
47749;SDS011;49810;48.160;10.812;2023-03-01T03:05:18;41.58;;;22.75;;
47749;SDS011;49810;48.160;10.812;2023-03-01T03:07:48;42.70;;;22.35;;
47749;SDS011;49810;48.160;10.812;2023-03-01T03:10:18;39.47;;;22.55;;
47749;SDS011;49810;48.160;10.812;2023-03-01T03:12:51;43.38;;;23.70;;
47749;SDS011;49810;48.160;10.812;2023-03-01T03:15:20;41.42;;;22.73;;
47749;SDS011;49810;48.160;10.812;2023-03-01T03:17:50;41.78;;;22.88;;
47749;SDS011;49810;48.160;10.812;2023-03-01T03:20:18;42.08;;;23.40;;
47749;SDS011;49810;48.160;10.812;2023-03-01T03:22:47;41.55;;;22.40;;
47749;SDS011;49810;48.160;10.812;2023-03-01T03:25:15;40.10;;;22.08;;
47749;SDS011;49810;48.160;10.812;2023-03-01T03:27:45;38.72;;;21.60;;
47749;SDS011;49810;48.160;10.812;2023-03-01T03:30:13;40.25;;;23.20;;
47749;SDS011;49810;48.160;10.812;2023-03-01T03:32:42;42.20;;;22.77;;
47749;SDS011;49810;48.160;10.812;2023-03-01T03:35:18;41.83;;;22.70;;
47749;SDS011;49810;48.160;10.812;2023-03-01T03:37:46;37.30;;;22.38;;
47749;SDS011;49810;48.160;10.812;2023-03-01T03:40:30;40.83;;;22.83;;
47749;SDS011;49810;48.160;10.812;2023-03-01T03:42:58;44.72;;;22.58;;
47749;SDS011;49810;48.160;10.812;2023-03-01T03:45:26;41.00;;;23.27;;
47749;SDS011;49810;48.160;10.812;2023-03-01T03:47:54;36.97;;;20.98;;
47749;SDS011;49810;48.160;10.812;2023-03-01T03:50:23;40.85;;;22.90;;
47749;SDS011;49810;48.160;10.812;2023-03-01T03:52:51;39.33;;;21.88;;
47749;SDS011;49810;48.160;10.812;2023-03-01T03:55:19;42.72;;;22.88;;
47749;SDS011;49810;48.160;10.812;2023-03-01T03:57:47;42.45;;;23.15;;
47749;SDS011;49810;48.160;10.812;2023-03-01T04:00:18;42.33;;;23.38;;
47749;SDS011;49810;48.160;10.812;2023-03-01T04:02:47;46.05;;;22.85;;
47749;SDS011;49810;48.160;10.812;2023-03-01T04:05:16;38.85;;;21.38;;
47749;SDS011;49810;48.160;10.812;2023-03-01T04:07:45;38.10;;;22.42;;
47749;SDS011;49810;48.160;10.812;2023-03-01T04:10:14;41.88;;;22.95;;
47749;SDS011;49810;48.160;10.812;2023-03-01T04:12:42;45.35;;;23.70;;
47749;SDS011;49810;48.160;10.812;2023-03-01T04:15:11;44.97;;;23.58;;
47749;SDS011;49810;48.160;10.812;2023-03-01T04:17:42;43.65;;;23.60;;
47749;SDS011;49810;48.160;10.812;2023-03-01T04:20:11;41.67;;;22.73;;
47749;SDS011;49810;48.160;10.812;2023-03-01T04:22:39;42.13;;;22.05;;
47749;SDS011;49810;48.160;10.812;2023-03-01T04:25:09;38.92;;;21.77;;
47749;SDS011;49810;48.160;10.812;2023-03-01T04:27:40;38.35;;;21.67;;
47749;SDS011;49810;48.160;10.812;2023-03-01T04:30:08;39.00;;;21.67;;
47749;SDS011;49810;48.160;10.812;2023-03-01T04:32:36;42.58;;;23.35;;
47749;SDS011;49810;48.160;10.812;2023-03-01T04:35:05;42.65;;;23.33;;
47749;SDS011;49810;48.160;10.812;2023-03-01T04:37:33;42.28;;;22.60;;
47749;SDS011;49810;48.160;10.812;2023-03-01T04:40:01;41.30;;;22.98;;
47749;SDS011;49810;48.160;10.812;2023-03-01T04:42:35;38.58;;;22.00;;
47749;SDS011;49810;48.160;10.812;2023-03-01T04:45:04;40.28;;;22.45;;
47749;SDS011;49810;48.160;10.812;2023-03-01T04:47:40;45.15;;;23.27;;
47749;SDS011;49810;48.160;10.812;2023-03-01T04:50:09;43.53;;;22.77;;
47749;SDS011;49810;48.160;10.812;2023-03-01T04:52:37;41.70;;;22.52;;
47749;SDS011;49810;48.160;10.812;2023-03-01T04:55:05;40.70;;;22.10;;
47749;SDS011;49810;48.160;10.812;2023-03-01T04:57:33;38.63;;;21.60;;
47749;SDS011;49810;48.160;10.812;2023-03-01T05:00:04;48.67;;;22.65;;
47749;SDS011;49810;48.160;10.812;2023-03-01T05:02:47;40.25;;;23.10;;
47749;SDS011;49810;48.160;10.812;2023-03-01T05:05:20;38.10;;;22.63;;
47749;SDS011;49810;48.160;10.812;2023-03-01T05:07:53;40.05;;;22.63;;
47749;SDS011;49810;48.160;10.812;2023-03-01T05:10:20;43.80;;;22.90;;
47749;SDS011;49810;48.160;10.812;2023-03-01T05:12:48;44.97;;;23.13;;
47749;SDS011;49810;48.160;10.812;2023-03-01T05:15:18;40.03;;;22.90;;
47749;SDS011;49810;48.160;10.812;2023-03-01T05:17:48;44.60;;;22.83;;
47749;SDS011;49810;48.160;10.812;2023-03-01T05:20:16;42.58;;;24.10;;
47749;SDS011;49810;48.160;10.812;2023-03-01T05:22:44;43.85;;;23.60;;
47749;SDS011;49810;48.160;10.812;2023-03-01T05:25:12;44.58;;;22.83;;
47749;SDS011;49810;48.160;10.812;2023-03-01T05:27:40;41.95;;;22.17;;
47749;SDS011;49810;48.160;10.812;2023-03-01T05:30:09;43.80;;;23.90;;
47749;SDS011;49810;48.160;10.812;2023-03-01T05:32:43;47.08;;;22.85;;
47749;SDS011;49810;48.160;10.812;2023-03-01T05:35:11;43.72;;;23.63;;
47749;SDS011;49810;48.160;10.812;2023-03-01T05:37:41;44.08;;;23.95;;
47749;SDS011;49810;48.160;10.812;2023-03-01T05:40:10;42.65;;;23.33;;
47749;SDS011;49810;48.160;10.812;2023-03-01T05:42:42;45.67;;;23.55;;
47749;SDS011;49810;48.160;10.812;2023-03-01T05:45:11;40.10;;;22.23;;
47749;SDS011;49810;48.160;10.812;2023-03-01T05:47:40;42.55;;;22.88;;
47749;SDS011;49810;48.160;10.812;2023-03-01T05:50:12;44.53;;;22.80;;
47749;SDS011;49810;48.160;10.812;2023-03-01T05:52:40;45.45;;;24.48;;
47749;SDS011;49810;48.160;10.812;2023-03-01T05:55:09;46.80;;;24.45;;
47749;SDS011;49810;48.160;10.812;2023-03-01T05:57:37;46.80;;;23.67;;
47749;SDS011;49810;48.160;10.812;2023-03-01T06:00:05;45.58;;;23.75;;
47749;SDS011;49810;48.160;10.812;2023-03-01T06:02:37;40.53;;;23.00;;
47749;SDS011;49810;48.160;10.812;2023-03-01T06:05:06;40.70;;;22.80;;
47749;SDS011;49810;48.160;10.812;2023-03-01T06:07:35;43.88;;;23.75;;
47749;SDS011;49810;48.160;10.812;2023-03-01T06:10:04;51.88;;;23.52;;
47749;SDS011;49810;48.160;10.812;2023-03-01T06:12:32;45.35;;;23.85;;
47749;SDS011;49810;48.160;10.812;2023-03-01T06:15:00;41.80;;;23.02;;
47749;SDS011;49810;48.160;10.812;2023-03-01T06:17:28;43.53;;;23.83;;
47749;SDS011;49810;48.160;10.812;2023-03-01T06:19:56;47.95;;;24.02;;
47749;SDS011;49810;48.160;10.812;2023-03-01T06:22:24;45.08;;;25.15;;
47749;SDS011;49810;48.160;10.812;2023-03-01T06:24:54;44.53;;;24.38;;
47749;SDS011;49810;48.160;10.812;2023-03-01T06:27:21;46.95;;;24.75;;
47749;SDS011;49810;48.160;10.812;2023-03-01T06:29:49;41.63;;;23.45;;
47749;SDS011;49810;48.160;10.812;2023-03-01T06:32:17;46.40;;;25.42;;
47749;SDS011;49810;48.160;10.812;2023-03-01T06:34:45;47.97;;;25.90;;
47749;SDS011;49810;48.160;10.812;2023-03-01T06:37:13;43.63;;;24.17;;
47749;SDS011;49810;48.160;10.812;2023-03-01T06:39:41;42.22;;;22.63;;
47749;SDS011;49810;48.160;10.812;2023-03-01T06:42:10;41.83;;;23.27;;
47749;SDS011;49810;48.160;10.812;2023-03-01T06:44:38;43.22;;;24.50;;
47749;SDS011;49810;48.160;10.812;2023-03-01T06:47:06;42.97;;;23.38;;
47749;SDS011;49810;48.160;10.812;2023-03-01T06:49:33;44.78;;;24.42;;
47749;SDS011;49810;48.160;10.812;2023-03-01T06:52:01;47.15;;;23.73;;
47749;SDS011;49810;48.160;10.812;2023-03-01T06:54:29;48.67;;;24.67;;
47749;SDS011;49810;48.160;10.812;2023-03-01T06:56:57;46.13;;;24.02;;
47749;SDS011;49810;48.160;10.812;2023-03-01T06:59:26;42.88;;;23.27;;
47749;SDS011;49810;48.160;10.812;2023-03-01T07:01:55;41.97;;;23.65;;
47749;SDS011;49810;48.160;10.812;2023-03-01T07:04:23;44.85;;;23.45;;
47749;SDS011;49810;48.160;10.812;2023-03-01T07:06:50;51.35;;;23.27;;
47749;SDS011;49810;48.160;10.812;2023-03-01T07:09:21;41.97;;;22.13;;
47749;SDS011;49810;48.160;10.812;2023-03-01T07:11:49;48.20;;;24.40;;
47749;SDS011;49810;48.160;10.812;2023-03-01T07:14:17;44.55;;;23.60;;
47749;SDS011;49810;48.160;10.812;2023-03-01T07:16:47;41.92;;;23.65;;
47749;SDS011;49810;48.160;10.812;2023-03-01T07:19:15;43.95;;;23.15;;
47749;SDS011;49810;48.160;10.812;2023-03-01T07:21:43;46.47;;;25.23;;
47749;SDS011;49810;48.160;10.812;2023-03-01T07:24:11;41.30;;;23.48;;
47749;SDS011;49810;48.160;10.812;2023-03-01T07:26:38;40.83;;;23.05;;
47749;SDS011;49810;48.160;10.812;2023-03-01T07:29:07;45.20;;;23.25;;
47749;SDS011;49810;48.160;10.812;2023-03-01T07:31:35;44.45;;;22.83;;
47749;SDS011;49810;48.160;10.812;2023-03-01T07:34:05;45.88;;;23.48;;
47749;SDS011;49810;48.160;10.812;2023-03-01T07:36:33;42.45;;;23.63;;
47749;SDS011;49810;48.160;10.812;2023-03-01T07:39:00;45.45;;;23.55;;
47749;SDS011;49810;48.160;10.812;2023-03-01T07:41:29;46.03;;;23.13;;
47749;SDS011;49810;48.160;10.812;2023-03-01T07:43:57;41.22;;;23.13;;
47749;SDS011;49810;48.160;10.812;2023-03-01T07:46:25;48.00;;;23.92;;
47749;SDS011;49810;48.160;10.812;2023-03-01T07:48:53;45.13;;;23.73;;
47749;SDS011;49810;48.160;10.812;2023-03-01T07:51:22;39.00;;;21.58;;
47749;SDS011;49810;48.160;10.812;2023-03-01T07:53:50;42.90;;;22.92;;
47749;SDS011;49810;48.160;10.812;2023-03-01T07:56:18;44.80;;;23.55;;
47749;SDS011;49810;48.160;10.812;2023-03-01T07:58:47;38.97;;;21.77;;
47749;SDS011;49810;48.160;10.812;2023-03-01T08:01:17;41.50;;;23.13;;
47749;SDS011;49810;48.160;10.812;2023-03-01T08:03:45;42.90;;;23.38;;
47749;SDS011;49810;48.160;10.812;2023-03-01T08:06:13;43.42;;;24.13;;
47749;SDS011;49810;48.160;10.812;2023-03-01T08:08:43;41.47;;;22.15;;
47749;SDS011;49810;48.160;10.812;2023-03-01T08:11:12;38.05;;;22.35;;
47749;SDS011;49810;48.160;10.812;2023-03-01T08:13:40;44.10;;;23.42;;
47749;SDS011;49810;48.160;10.812;2023-03-01T08:16:10;43.28;;;23.35;;
47749;SDS011;49810;48.160;10.812;2023-03-01T08:18:38;44.25;;;24.15;;
47749;SDS011;49810;48.160;10.812;2023-03-01T08:21:06;41.88;;;23.90;;
47749;SDS011;49810;48.160;10.812;2023-03-01T08:23:34;43.15;;;23.77;;
47749;SDS011;49810;48.160;10.812;2023-03-01T08:26:05;42.10;;;21.98;;
47749;SDS011;49810;48.160;10.812;2023-03-01T08:28:33;41.72;;;23.25;;
47749;SDS011;49810;48.160;10.812;2023-03-01T08:31:01;41.20;;;22.38;;
47749;SDS011;49810;48.160;10.812;2023-03-01T08:33:29;44.25;;;23.10;;
47749;SDS011;49810;48.160;10.812;2023-03-01T08:36:04;44.30;;;23.17;;
47749;SDS011;49810;48.160;10.812;2023-03-01T08:38:33;42.28;;;23.17;;
47749;SDS011;49810;48.160;10.812;2023-03-01T08:41:01;36.90;;;21.83;;
47749;SDS011;49810;48.160;10.812;2023-03-01T08:43:31;36.70;;;21.27;;
47749;SDS011;49810;48.160;10.812;2023-03-01T08:45:59;39.97;;;22.27;;
47749;SDS011;49810;48.160;10.812;2023-03-01T08:48:27;44.85;;;23.63;;
47749;SDS011;49810;48.160;10.812;2023-03-01T08:50:55;43.70;;;23.02;;
47749;SDS011;49810;48.160;10.812;2023-03-01T08:53:23;42.75;;;22.83;;
47749;SDS011;49810;48.160;10.812;2023-03-01T08:55:51;47.13;;;25.25;;
47749;SDS011;49810;48.160;10.812;2023-03-01T08:58:19;40.72;;;24.58;;
47749;SDS011;49810;48.160;10.812;2023-03-01T09:00:49;50.70;;;26.50;;
47749;SDS011;49810;48.160;10.812;2023-03-01T09:03:16;41.22;;;23.60;;
47749;SDS011;49810;48.160;10.812;2023-03-01T09:05:44;41.40;;;24.10;;
47749;SDS011;49810;48.160;10.812;2023-03-01T09:08:12;42.20;;;23.90;;
47749;SDS011;49810;48.160;10.812;2023-03-01T09:10:42;41.97;;;23.13;;
47749;SDS011;49810;48.160;10.812;2023-03-01T09:13:10;43.53;;;23.38;;
47749;SDS011;49810;48.160;10.812;2023-03-01T09:15:38;46.00;;;27.02;;
47749;SDS011;49810;48.160;10.812;2023-03-01T09:18:07;45.25;;;24.50;;
47749;SDS011;49810;48.160;10.812;2023-03-01T09:20:35;45.33;;;25.05;;
47749;SDS011;49810;48.160;10.812;2023-03-01T09:23:03;37.88;;;22.08;;
47749;SDS011;49810;48.160;10.812;2023-03-01T09:25:31;41.97;;;24.05;;
47749;SDS011;49810;48.160;10.812;2023-03-01T09:27:59;39.15;;;22.80;;
47749;SDS011;49810;48.160;10.812;2023-03-01T09:30:32;35.13;;;18.07;;
47749;SDS011;49810;48.160;10.812;2023-03-01T09:33:00;41.97;;;23.27;;
47749;SDS011;49810;48.160;10.812;2023-03-01T09:35:30;40.72;;;23.02;;
47749;SDS011;49810;48.160;10.812;2023-03-01T09:37:58;45.17;;;24.60;;
47749;SDS011;49810;48.160;10.812;2023-03-01T09:40:26;43.67;;;24.80;;
47749;SDS011;49810;48.160;10.812;2023-03-01T09:42:56;42.80;;;23.48;;
47749;SDS011;49810;48.160;10.812;2023-03-01T09:45:29;40.50;;;22.38;;
47749;SDS011;49810;48.160;10.812;2023-03-01T09:48:00;41.33;;;23.48;;
47749;SDS011;49810;48.160;10.812;2023-03-01T09:50:32;42.70;;;23.67;;
47749;SDS011;49810;48.160;10.812;2023-03-01T09:53:01;41.20;;;23.55;;
47749;SDS011;49810;48.160;10.812;2023-03-01T09:55:31;41.78;;;24.00;;
47749;SDS011;49810;48.160;10.812;2023-03-01T09:58:02;49.17;;;25.33;;
47749;SDS011;49810;48.160;10.812;2023-03-01T10:00:35;47.67;;;24.77;;
47749;SDS011;49810;48.160;10.812;2023-03-01T10:03:08;42.78;;;23.65;;
47749;SDS011;49810;48.160;10.812;2023-03-01T10:05:46;45.42;;;25.05;;
47749;SDS011;49810;48.160;10.812;2023-03-01T10:08:23;45.75;;;26.27;;
47749;SDS011;49810;48.160;10.812;2023-03-01T10:10:53;46.25;;;23.42;;
47749;SDS011;49810;48.160;10.812;2023-03-01T10:13:21;43.55;;;23.55;;
47749;SDS011;49810;48.160;10.812;2023-03-01T10:15:53;44.58;;;23.73;;
47749;SDS011;49810;48.160;10.812;2023-03-01T10:18:23;49.80;;;25.10;;
47749;SDS011;49810;48.160;10.812;2023-03-01T10:20:54;43.55;;;23.33;;
47749;SDS011;49810;48.160;10.812;2023-03-01T10:23:23;43.95;;;23.80;;
47749;SDS011;49810;48.160;10.812;2023-03-01T10:25:54;44.38;;;24.73;;
47749;SDS011;49810;48.160;10.812;2023-03-01T10:28:25;46.45;;;24.85;;
47749;SDS011;49810;48.160;10.812;2023-03-01T10:30:55;50.67;;;25.15;;
47749;SDS011;49810;48.160;10.812;2023-03-01T10:33:25;42.10;;;23.88;;
47749;SDS011;49810;48.160;10.812;2023-03-01T10:35:55;43.92;;;25.35;;
47749;SDS011;49810;48.160;10.812;2023-03-01T10:38:23;45.75;;;24.77;;
47749;SDS011;49810;48.160;10.812;2023-03-01T10:40:52;46.47;;;24.85;;
47749;SDS011;49810;48.160;10.812;2023-03-01T10:43:20;45.40;;;25.02;;
47749;SDS011;49810;48.160;10.812;2023-03-01T10:45:48;41.35;;;24.00;;
47749;SDS011;49810;48.160;10.812;2023-03-01T10:48:17;41.65;;;24.05;;
47749;SDS011;49810;48.160;10.812;2023-03-01T10:50:46;47.58;;;25.63;;
47749;SDS011;49810;48.160;10.812;2023-03-01T10:53:23;44.72;;;24.02;;
47749;SDS011;49810;48.160;10.812;2023-03-01T10:55:56;46.13;;;25.13;;
47749;SDS011;49810;48.160;10.812;2023-03-01T10:58:25;47.35;;;24.67;;
47749;SDS011;49810;48.160;10.812;2023-03-01T11:00:53;47.15;;;25.17;;
47749;SDS011;49810;48.160;10.812;2023-03-01T11:03:23;43.83;;;24.95;;
47749;SDS011;49810;48.160;10.812;2023-03-01T11:05:53;46.42;;;24.13;;
47749;SDS011;49810;48.160;10.812;2023-03-01T11:08:33;49.03;;;25.23;;
47749;SDS011;49810;48.160;10.812;2023-03-01T11:11:06;47.83;;;25.08;;
47749;SDS011;49810;48.160;10.812;2023-03-01T11:13:34;45.50;;;25.13;;
47749;SDS011;49810;48.160;10.812;2023-03-01T11:16:05;46.92;;;25.90;;
47749;SDS011;49810;48.160;10.812;2023-03-01T11:18:36;46.63;;;24.20;;
47749;SDS011;49810;48.160;10.812;2023-03-01T11:21:14;44.30;;;23.90;;
47749;SDS011;49810;48.160;10.812;2023-03-01T11:23:44;45.75;;;25.20;;
47749;SDS011;49810;48.160;10.812;2023-03-01T11:26:13;45.85;;;25.40;;
47749;SDS011;49810;48.160;10.812;2023-03-01T11:28:43;49.00;;;27.00;;
47749;SDS011;49810;48.160;10.812;2023-03-01T11:31:13;48.13;;;25.67;;
47749;SDS011;49810;48.160;10.812;2023-03-01T11:33:44;44.78;;;25.27;;
47749;SDS011;49810;48.160;10.812;2023-03-01T11:36:16;46.47;;;25.77;;
47749;SDS011;49810;48.160;10.812;2023-03-01T11:38:45;46.53;;;24.40;;
47749;SDS011;49810;48.160;10.812;2023-03-01T11:41:15;43.92;;;25.38;;
47749;SDS011;49810;48.160;10.812;2023-03-01T11:43:46;42.78;;;25.38;;
47749;SDS011;49810;48.160;10.812;2023-03-01T11:46:25;43.20;;;25.15;;
47749;SDS011;49810;48.160;10.812;2023-03-01T11:48:59;44.80;;;26.25;;
47749;SDS011;49810;48.160;10.812;2023-03-01T11:51:35;47.65;;;26.05;;
47749;SDS011;49810;48.160;10.812;2023-03-01T11:54:09;46.03;;;25.90;;
47749;SDS011;49810;48.160;10.812;2023-03-01T11:56:41;42.30;;;24.10;;
47749;SDS011;49810;48.160;10.812;2023-03-01T11:59:24;47.60;;;25.67;;
47749;SDS011;49810;48.160;10.812;2023-03-01T12:01:59;45.05;;;25.13;;
47749;SDS011;49810;48.160;10.812;2023-03-01T12:04:48;44.95;;;25.95;;
47749;SDS011;49810;48.160;10.812;2023-03-01T12:07:20;46.20;;;24.98;;
47749;SDS011;49810;48.160;10.812;2023-03-01T12:09:55;39.20;;;23.95;;
47749;SDS011;49810;48.160;10.812;2023-03-01T12:12:26;50.22;;;29.40;;
47749;SDS011;49810;48.160;10.812;2023-03-01T12:14:59;42.05;;;24.85;;
47749;SDS011;49810;48.160;10.812;2023-03-01T12:17:35;40.92;;;26.02;;
47749;SDS011;49810;48.160;10.812;2023-03-01T12:20:17;35.88;;;23.10;;
47749;SDS011;49810;48.160;10.812;2023-03-01T12:22:52;34.60;;;22.90;;
47749;SDS011;49810;48.160;10.812;2023-03-01T12:25:46;39.90;;;23.65;;
47749;SDS011;49810;48.160;10.812;2023-03-01T12:28:29;41.72;;;26.25;;
47749;SDS011;49810;48.160;10.812;2023-03-01T12:31:15;39.10;;;25.48;;
47749;SDS011;49810;48.160;10.812;2023-03-01T12:33:49;40.28;;;26.05;;
47749;SDS011;49810;48.160;10.812;2023-03-01T12:39:16;39.60;;;25.08;;
47749;SDS011;49810;48.160;10.812;2023-03-01T12:41:48;36.28;;;23.98;;
47749;SDS011;49810;48.160;10.812;2023-03-01T12:44:25;39.67;;;26.03;;
47749;SDS011;49810;48.160;10.812;2023-03-01T12:47:00;41.72;;;27.27;;
47749;SDS011;49810;48.160;10.812;2023-03-01T12:49:33;45.78;;;27.77;;
47749;SDS011;49810;48.160;10.812;2023-03-01T12:52:10;45.55;;;28.02;;
47749;SDS011;49810;48.160;10.812;2023-03-01T12:54:40;42.83;;;26.25;;
47749;SDS011;49810;48.160;10.812;2023-03-01T12:57:11;41.63;;;26.05;;
47749;SDS011;49810;48.160;10.812;2023-03-01T12:59:42;42.25;;;26.63;;
47749;SDS011;49810;48.160;10.812;2023-03-01T13:02:14;40.05;;;25.25;;
47749;SDS011;49810;48.160;10.812;2023-03-01T13:04:52;42.67;;;26.15;;
47749;SDS011;49810;48.160;10.812;2023-03-01T13:07:23;45.28;;;26.80;;
47749;SDS011;49810;48.160;10.812;2023-03-01T13:09:55;40.88;;;26.40;;
47749;SDS011;49810;48.160;10.812;2023-03-01T13:12:43;42.97;;;25.80;;
47749;SDS011;49810;48.160;10.812;2023-03-01T13:15:24;44.67;;;26.60;;
47749;SDS011;49810;48.160;10.812;2023-03-01T13:17:53;38.83;;;24.77;;
47749;SDS011;49810;48.160;10.812;2023-03-01T13:20:23;42.38;;;27.00;;
47749;SDS011;49810;48.160;10.812;2023-03-01T13:23:00;39.20;;;25.75;;
47749;SDS011;49810;48.160;10.812;2023-03-01T13:25:28;40.78;;;26.17;;
47749;SDS011;49810;48.160;10.812;2023-03-01T13:30:57;35.58;;;23.33;;
47749;SDS011;49810;48.160;10.812;2023-03-01T13:33:41;34.80;;;22.83;;
47749;SDS011;49810;48.160;10.812;2023-03-01T13:39:03;41.15;;;23.90;;
47749;SDS011;49810;48.160;10.812;2023-03-01T13:41:50;38.38;;;24.73;;
47749;SDS011;49810;48.160;10.812;2023-03-01T13:44:20;36.03;;;24.20;;
47749;SDS011;49810;48.160;10.812;2023-03-01T13:46:50;37.20;;;25.80;;
47749;SDS011;49810;48.160;10.812;2023-03-01T13:49:21;35.63;;;23.83;;
47749;SDS011;49810;48.160;10.812;2023-03-01T13:51:49;39.88;;;25.45;;
47749;SDS011;49810;48.160;10.812;2023-03-01T13:54:20;33.13;;;23.35;;
47749;SDS011;49810;48.160;10.812;2023-03-01T13:56:49;36.90;;;24.27;;
47749;SDS011;49810;48.160;10.812;2023-03-01T13:59:18;32.75;;;23.48;;
47749;SDS011;49810;48.160;10.812;2023-03-01T14:01:52;33.47;;;23.70;;
47749;SDS011;49810;48.160;10.812;2023-03-01T14:04:21;36.65;;;24.75;;
47749;SDS011;49810;48.160;10.812;2023-03-01T14:06:49;31.80;;;23.25;;
47749;SDS011;49810;48.160;10.812;2023-03-01T14:09:18;30.17;;;22.63;;
47749;SDS011;49810;48.160;10.812;2023-03-01T14:11:54;31.80;;;23.73;;
47749;SDS011;49810;48.160;10.812;2023-03-01T14:14:42;34.97;;;24.20;;
47749;SDS011;49810;48.160;10.812;2023-03-01T14:17:17;34.60;;;23.98;;
47749;SDS011;49810;48.160;10.812;2023-03-01T14:19:48;35.05;;;24.15;;
47749;SDS011;49810;48.160;10.812;2023-03-01T14:22:23;33.30;;;23.67;;
47749;SDS011;49810;48.160;10.812;2023-03-01T14:24:51;36.90;;;24.13;;
47749;SDS011;49810;48.160;10.812;2023-03-01T14:27:20;32.97;;;24.65;;
47749;SDS011;49810;48.160;10.812;2023-03-01T14:29:54;33.70;;;21.80;;
47749;SDS011;49810;48.160;10.812;2023-03-01T14:32:25;32.28;;;22.30;;
47749;SDS011;49810;48.160;10.812;2023-03-01T14:34:54;33.05;;;22.30;;
47749;SDS011;49810;48.160;10.812;2023-03-01T14:37:24;33.70;;;21.95;;